Melbourne Airport, Australia

9:27 AM AEDT on November 24, 2017 (GMT +1100)
Melbourne International

Weather History for YMML - January, 2014

Change the Weather History Date:

Thursday, January 9, 2014

  Actual Average Record
Temperature  
Mean Temperature 72 °F -  
Max Temperature 90 °F 77 °F 90 °F (2014)
Min Temperature 53 °F 55 °F 50 °F (2003)
Cooling Degree Days 6    
Growing Degree Days 22 (Base 50)    
Moisture  
Dew Point 50 °F    
Average Humidity 47    
Maximum Humidity 85    
Minimum Humidity 14    
Precipitation  
Precipitation 0.00 in 0.06 in - ()
Sea Level Pressure  
Sea Level Pressure 30.06 in    
Wind  
Wind Speed 10 mph ()    
Max Wind Speed 20 mph    
Max Gust Speed 30 mph    
Visibility 17.5 miles    
Events      
Averages and records for this station are not official NWS values.
T = Trace of Precipitation, MM = Missing Value Source: Averaged Metar Reports

Daily Weather History Graph

Daily Weather History Graph

Search for Another Location

Airport or City:

Trip Planner

Search our weather history database for the weather conditions in past years. The results will help you decide how hot, cold, wet, or windy it might be!

Date:

Astronomy

Jan. 09, 2014 Rise Set
Actual Time 6:09 AM AEDT 8:45 PM AEDT
Civil Twilight 5:38 AM AEDT 9:16 PM AEDT
Nautical Twilight 5:00 AM AEDT 9:54 PM AEDT
Astronomical Twilight 4:17 AM AEDT 10:36 PM AEDT
Moon 2:38 PM AEDT (1/9) 1:01 AM AEDT (1/9)
Length of Visible Light 15h 37m
Length of Day
14h 36m
First Quarter, 59% of the Moon is Illuminated
Jan 9
First Quarter
Jan 16
Full
Jan 24
Last Quarter
Jan 31
New
Feb 7
First Quarter

Hourly Weather History & Observations

Time (AEDT) Temp. Dew Point Humidity Pressure Visibility Wind Dir Wind Speed Gust Speed Precip Events Conditions
12:00 AM 57 °F 48 °F 63% 30.10 in 25 mi WNW 8.1 mph - -   Partly Cloudy
12:00 AM 57.2 °F 48.2 °F 72% 30.09 in - WNW 8.1 mph - N/A   Clear
12:30 AM 57.2 °F 48.2 °F 72% 30.09 in - West 9.2 mph - N/A   Clear
1:00 AM 57 °F 49 °F 67% 30.09 in - West 9.2 mph - -  
1:00 AM 57.2 °F 48.2 °F 72% 30.09 in - West 9.2 mph - N/A   Clear
1:30 AM 57.2 °F 50.0 °F 77% 30.09 in - West 9.2 mph - N/A   Clear
2:00 AM 55 °F 49 °F 76% 30.09 in - West 10.4 mph - -  
2:00 AM 55.4 °F 50.0 °F 82% 30.09 in - West 10.4 mph - N/A   Clear
2:30 AM 55.4 °F 50.0 °F 82% 30.09 in - WNW 8.1 mph - N/A   Clear
3:00 AM 55 °F 50 °F 76% 30.09 in 16 mi WNW 8.1 mph - -   Partly Cloudy
3:00 AM 55.4 °F 50.0 °F 82% 30.09 in - WNW 8.1 mph - N/A   Clear
3:30 AM 55.4 °F 50.0 °F 82% 30.09 in - West 6.9 mph - N/A   Clear
4:00 AM 55 °F 51 °F 80% 30.08 in - WNW 8.1 mph - -  
4:00 AM 55.4 °F 50.0 °F 82% 30.09 in - WNW 8.1 mph - N/A   Clear
4:30 AM 55.4 °F 50.0 °F 82% 30.06 in - West 8.1 mph - N/A   Clear
5:00 AM 54 °F 51 °F 85% 30.09 in - WNW 6.9 mph - -  
5:00 AM 55.4 °F 50.0 °F 82% 30.09 in - WNW 6.9 mph - N/A   Clear
5:30 AM 55.4 °F 50.0 °F 82% 30.09 in - WNW 8.1 mph - N/A   Clear
6:00 AM 55 °F 51 °F 81% 30.11 in 16 mi NNW 9.2 mph - -   Partly Cloudy
6:00 AM 55.4 °F 50.0 °F 82% 30.09 in - NNW 9.2 mph - N/A   Clear
6:30 AM 55.4 °F 50.0 °F 82% 30.12 in - North 5.8 mph - N/A   Clear
7:00 AM 56 °F 51 °F 79% 30.12 in - North 5.8 mph - -  
7:00 AM 57.2 °F 51.8 °F 82% 30.12 in - North 5.8 mph - N/A   Clear
7:30 AM 59.0 °F 51.8 °F 77% 30.12 in - West 6.9 mph - N/A   Clear
8:00 AM 60 °F 52 °F 67% 30.14 in - West 5.8 mph - -  
8:00 AM 60.8 °F 51.8 °F 72% 30.12 in - West 5.8 mph - N/A   Clear
8:30 AM 62.6 °F 51.8 °F 68% 30.12 in - WNW 3.5 mph - N/A   Clear
9:00 AM 65 °F 53 °F 56% 30.14 in 16 mi West 2.3 mph - -   Haze
9:00 AM 66.2 °F 53.6 °F 64% 30.12 in - West 2.3 mph - N/A   Clear
9:30 AM 69.8 °F 53.6 °F 56% 30.12 in - North 2.3 mph - N/A   Clear
10:00 AM 71 °F 51 °F 37% 30.12 in - NE 5.8 mph - -  
10:00 AM 71.6 °F 50.0 °F 46% 30.12 in - NE 5.8 mph - N/A   Clear
10:30 AM 75.2 °F 51.8 °F 44% 30.12 in - ENE 6.9 mph - N/A   Clear
10:42 AM 78.8 °F 46.4 °F 32% 30.09 in - North 19.6 mph - N/A   Unknown
11:00 AM 79 °F 48 °F 23% 30.10 in - NNE 17.3 mph - -  
11:00 AM 78.8 °F 48.2 °F 34% 30.09 in - NNE 17.3 mph - N/A   Clear
11:30 AM 80.6 °F 46.4 °F 30% 30.09 in - North 17.3 mph - N/A   Clear
12:00 PM 83 °F 45 °F 17% 30.08 in 19 mi North 16.1 mph - -   Partly Cloudy
12:00 PM 82.4 °F 44.6 °F 26% 30.06 in - North 16.1 mph - N/A   Clear
12:08 PM 84.2 °F 44.6 °F 25% 30.06 in - North 17.3 mph 29.9 mph N/A   Clear
12:30 PM 86.0 °F 46.4 °F 25% 30.06 in - North 18.4 mph - N/A   Clear
1:00 PM 85 °F 45 °F 15% 30.06 in - North 18.4 mph - -  
1:00 PM 86.0 °F 44.6 °F 23% 30.06 in - North 18.4 mph - N/A   Clear
1:30 PM 86.0 °F 44.6 °F 23% 30.04 in - North 18.4 mph - N/A   Clear
2:00 PM 87 °F 46 °F 15% 30.04 in - NNW 16.1 mph - -  
2:00 PM 87.8 °F 46.4 °F 24% 30.04 in - NNW 16.1 mph - N/A   Clear
2:30 PM 87.8 °F 46.4 °F 24% 30.04 in - North 16.1 mph - N/A   Clear
3:00 PM 89 °F 47 °F 14% 30.02 in 19 mi North 18.4 mph - -   Partly Cloudy
3:00 PM 89.6 °F 46.4 °F 22% 30.01 in - North 18.4 mph - N/A   Clear
3:30 PM 87.8 °F 48.2 °F 25% 30.01 in - North 17.3 mph - N/A   Clear
4:00 PM 90 °F 48 °F 14% 30.01 in - North 18.4 mph - -  
4:00 PM 89.6 °F 48.2 °F 24% 30.01 in - North 18.4 mph - N/A   Clear
4:30 PM 87.8 °F 48.2 °F 25% 30.01 in - North 16.1 mph - N/A   Clear
5:00 PM 89 °F 48 °F 15% 29.99 in - North 17.3 mph - -  
5:00 PM 89.6 °F 48.2 °F 24% 29.98 in - North 17.3 mph - N/A   Clear
5:30 PM 87.8 °F 50.0 °F 27% 29.98 in - NE 13.8 mph - N/A   Clear
6:00 PM 87 °F 50 °F 18% 29.97 in 25 mi NNE 15.0 mph - -   Partly Cloudy
6:00 PM 86.0 °F 50.0 °F 29% 29.98 in - NNE 15.0 mph - N/A   Clear
6:30 PM 86.0 °F 50.0 °F 29% 29.98 in - NE 16.1 mph - N/A   Clear
7:00 PM 86 °F 51 °F 20% 29.98 in - NNE 15.0 mph - -  
7:00 PM 86.0 °F 51.8 °F 31% 29.98 in - NNE 15.0 mph - N/A   Clear
7:30 PM 86.0 °F 50.0 °F 29% 29.98 in - North 15.0 mph - N/A   Clear
8:00 PM 85 °F 51 °F 21% 29.99 in - North 12.7 mph - -  
8:00 PM 84.2 °F 51.8 °F 33% 29.98 in - North 12.7 mph - N/A   Clear
8:30 PM 84.2 °F 51.8 °F 33% 30.01 in - North 9.2 mph - N/A   Clear
9:00 PM 82 °F 52 °F 25% 30.01 in 19 mi North 10.4 mph - -   Partly Cloudy
9:00 PM 82.4 °F 51.8 °F 35% 30.01 in - North 10.4 mph - N/A   Clear
9:30 PM 78.8 °F 53.6 °F 42% 30.01 in - NNE 9.2 mph - N/A   Clear
10:00 PM 76 °F 54 °F 35% 30.03 in - North 9.2 mph - -  
10:00 PM 77.0 °F 53.6 °F 44% 30.04 in - North 9.2 mph 20.7 mph N/A   Clear
10:30 PM 77.0 °F 53.6 °F 44% 30.04 in - North 10.4 mph - N/A   Clear
11:00 PM 76 °F 53 °F 34% 30.04 in - North 11.5 mph - -  
11:00 PM 75.2 °F 53.6 °F 47% 30.04 in - North 11.5 mph - N/A   Clear
11:30 PM 75.2 °F 53.6 °F 47% 30.04 in - North 15.0 mph 27.6 mph N/A   Clear